Juergen K — PBKV — position and weather

sailwx.info

Track history (hours):
 
Tides and Currents Weather Stations Pressure Air Temp Water Temp Dewpoint Dewpoint Depression Visibility Wind Speed Wind Dir Waves Ship Positions

Juergen K

Last reported at 2015-May-06 06:03 UTC. Time now 2015-May-06 08:28 UTC.
Position N 43°24' E 003°43'.

Length 89 m; draft 3.6 m.

Type: Cargo ship. MMSI: 244329000.

Date/timePositionNaut miles runAvg speedWind from/ knotsBaromVisibWave heightAir tempDewpointWater temp
2015-May-06 06:03N 43°24' E 003°43'19 1.5
2015-May-05 17:34N 43°18' E 004°08'3810.9
2015-May-05 14:05N 43°07' E 004°58'11510.6
2015-May-05 03:12N 43°26' E 007°34'5311.5
2015-May-04 22:33N 44°01' E 008°30'1211.6
2015-May-04 21:33N 44°09' E 008°42'1111.4
2015-May-04 20:33N 44°17' E 008°53'7 7.4
2015-May-04 19:33N 44°24' E 008°54'0 0.1
2015-May-04 18:28N 44°24' E 008°54'0 0.0
2015-May-04 17:28N 44°24' E 008°54'0 0.0
2015-May-04 16:16N 44°24' E 008°54'0 0.0
2015-May-04 15:28N 44°24' E 008°54'0 0.0
2015-May-04 14:28N 44°24' E 008°54'0 0.0
2015-May-04 13:28N 44°24' E 008°54'0 0.0
2015-May-04 12:28N 44°24' E 008°54'0 0.0
2015-May-04 11:28N 44°24' E 008°54'0 0.0
2015-May-04 10:19N 44°24' E 008°54'0 0.0
2015-May-04 09:22N 44°24' E 008°54'0 0.0
2015-May-04 08:22N 44°24' E 008°54'0 0.0
2015-May-04 07:28N 44°24' E 008°54'0 0.0
2015-May-04 05:22N 44°24' E 008°54'0 0.1
2015-May-04 04:34N 44°24' E 008°54'5 4.3
2015-May-04 03:30N 44°22' E 009°00'0 0.0
2015-May-04 02:30N 44°22' E 009°00'0 0.0
2015-May-04 01:30N 44°22' E 009°00'0 0.0
2015-May-04 00:30N 44°22' E 009°00'0 0.0
2015-May-03 23:33N 44°22' E 009°00'0 0.0
2015-May-03 22:30N 44°22' E 009°00'0 0.0
2015-May-03 21:33N 44°22' E 009°00'0 0.0
2015-May-03 20:33N 44°22' E 009°00'0 0.0
2015-May-03 19:33N 44°22' E 009°00'0 0.0
2015-May-03 18:27N 44°22' E 009°00'0 0.0
2015-May-03 17:33N 44°22' E 009°00'0 0.0
2015-May-03 16:33N 44°22' E 009°00'0 0.0
2015-May-03 15:30N 44°22' E 009°00'0 0.0
2015-May-03 14:33N 44°22' E 009°00'0 0.0
2015-May-03 13:33N 44°22' E 009°00'0 0.0
2015-May-03 12:33N 44°22' E 009°00'0 0.0
2015-May-03 11:30N 44°22' E 009°00'4 4.4
2015-May-03 10:33N 44°18' E 009°01'1110.0
2015-May-03 09:30N 44°08' E 009°05'9 9.9
2015-May-03 08:33N 43°59' E 009°10'1010.3
2015-May-03 07:33N 43°50' E 009°14'1010.3
2015-May-03 06:33N 43°40' E 009°19'1010.1
2015-May-03 05:33N 43°30' E 009°24'10 9.7
2015-May-03 04:33N 43°21' E 009°28'49 9.7
2015-May-02 23:29N 42°34' E 009°49'232 9.3
2015-May-01 22:33N 39°53' E 013°31'10 9.7
2015-May-01 21:33N 39°47' E 013°40'10 9.6
2015-May-01 20:33N 39°41' E 013°50'10 9.5
2015-May-01 19:33N 39°35' E 013°59'111 9.1
2015-May-01 07:22N 38°14' E 015°37'  
Track history (hours):
 
Tides and Currents Weather Stations Pressure Air Temp Water Temp Dewpoint Dewpoint Depression Visibility Wind Speed Wind Dir Waves Ship Positions

Juergen K

Last reported at 2015-May-06 06:03 UTC. Time now 2015-May-06 08:28 UTC.
Position N 43°24' E 003°43'.

Length 89 m; draft 3.6 m.

Type: Cargo ship. MMSI: 244329000.

Date/timePositionNaut miles runAvg speedWind from/ knotsBaromVisibWave heightAir tempDewpointWater temp
2015-May-06 06:03N 43°24' E 003°43'19 1.5
2015-May-05 17:34N 43°18' E 004°08'3810.9
2015-May-05 14:05N 43°07' E 004°58'11510.6
2015-May-05 03:12N 43°26' E 007°34'5311.5
2015-May-04 22:33N 44°01' E 008°30'1211.6
2015-May-04 21:33N 44°09' E 008°42'1111.4
2015-May-04 20:33N 44°17' E 008°53'7 7.4
2015-May-04 19:33N 44°24' E 008°54'0 0.1
2015-May-04 18:28N 44°24' E 008°54'0 0.0
2015-May-04 17:28N 44°24' E 008°54'0 0.0
2015-May-04 16:16N 44°24' E 008°54'0 0.0
2015-May-04 15:28N 44°24' E 008°54'0 0.0
2015-May-04 14:28N 44°24' E 008°54'0 0.0
2015-May-04 13:28N 44°24' E 008°54'0 0.0
2015-May-04 12:28N 44°24' E 008°54'0 0.0
2015-May-04 11:28N 44°24' E 008°54'0 0.0
2015-May-04 10:19N 44°24' E 008°54'0 0.0
2015-May-04 09:22N 44°24' E 008°54'0 0.0
2015-May-04 08:22N 44°24' E 008°54'0 0.0
2015-May-04 07:28N 44°24' E 008°54'0 0.0
2015-May-04 05:22N 44°24' E 008°54'0 0.1
2015-May-04 04:34N 44°24' E 008°54'5 4.3
2015-May-04 03:30N 44°22' E 009°00'0 0.0
2015-May-04 02:30N 44°22' E 009°00'0 0.0
2015-May-04 01:30N 44°22' E 009°00'0 0.0
2015-May-04 00:30N 44°22' E 009°00'0 0.0
2015-May-03 23:33N 44°22' E 009°00'0 0.0
2015-May-03 22:30N 44°22' E 009°00'0 0.0
2015-May-03 21:33N 44°22' E 009°00'0 0.0
2015-May-03 20:33N 44°22' E 009°00'0 0.0
2015-May-03 19:33N 44°22' E 009°00'0 0.0
2015-May-03 18:27N 44°22' E 009°00'0 0.0
2015-May-03 17:33N 44°22' E 009°00'0 0.0
2015-May-03 16:33N 44°22' E 009°00'0 0.0
2015-May-03 15:30N 44°22' E 009°00'0 0.0
2015-May-03 14:33N 44°22' E 009°00'0 0.0
2015-May-03 13:33N 44°22' E 009°00'0 0.0
2015-May-03 12:33N 44°22' E 009°00'0 0.0
2015-May-03 11:30N 44°22' E 009°00'4 4.4
2015-May-03 10:33N 44°18' E 009°01'1110.0
2015-May-03 09:30N 44°08' E 009°05'9 9.9
2015-May-03 08:33N 43°59' E 009°10'1010.3
2015-May-03 07:33N 43°50' E 009°14'1010.3
2015-May-03 06:33N 43°40' E 009°19'1010.1
2015-May-03 05:33N 43°30' E 009°24'10 9.7
2015-May-03 04:33N 43°21' E 009°28'49 9.7
2015-May-02 23:29N 42°34' E 009°49'232 9.3
2015-May-01 22:33N 39°53' E 013°31'10 9.7
2015-May-01 21:33N 39°47' E 013°40'10 9.6
2015-May-01 20:33N 39°41' E 013°50'10 9.5
2015-May-01 19:33N 39°35' E 013°59'111 9.1
2015-May-01 07:22N 38°14' E 015°37'  

Dump ship's entire track history